Impacts TAF Board INFO
FOR SITUATIONAL AWARENESS. NOT TO BE USED FOR FLIGHT PLANNING PURPOSES.
IDs:

KPHX - Phoenix/Sky Harbor, AZ, US

Issued at 1120 UTC 12 Dec 2017
Updated at 1206 UTC 12 Dec 2017
Potential Impact None Slight Moderate High
Time<<13/13Z 13/14Z 13/15Z 13/16Z 13/17Z 13/18Z 13/19Z 13/20Z 13/21Z 13/22Z 13/23Z 14/00Z 14/01Z
Type PRVL PRVL PRVL PRVL PRVL
VIS >6 >6 >6 >6 >6
CIG -- -- -- -- --
Cover SCT SCT SCT SCT SCT
FltCat VFR VFR VFR VFR VFR
WX -- -- -- -- --
WDir 70 70 70 70 70
WSpd 6 6 6 6 6
WGst -- -- -- -- --

Raw TAF
KPHX 121120Z 1212/1318 07006KT P6SM SCT250 WS020/07028KT
  FM121800 10010G18KT P6SM SCT250
  TEMPO 1219/1223 10014G24KT
  FM122300 07006KT P6SM SCT250 WS019/08035KT


METAR Board
Radar Display
Forecast Discussion

FOR SITUATIONAL AWARENESS. NOT TO BE USED FOR FLIGHT PLANNING PURPOSES.